createdAt,value
2019-03-04T00:03:16.684Z,82.00
2019-03-04T00:07:21.229Z,82.00
2019-03-04T00:11:25.828Z,81.90
2019-03-04T00:15:30.384Z,82.10
2019-03-04T00:19:34.946Z,82.10
2019-03-04T00:23:39.510Z,82.00
2019-03-04T00:27:44.081Z,82.10
2019-03-04T00:31:48.670Z,81.90
2019-03-04T00:35:53.191Z,81.80
2019-03-04T00:39:57.752Z,81.70
2019-03-04T00:44:02.314Z,82.60
2019-03-04T00:48:06.893Z,82.90
2019-03-04T00:52:11.448Z,83.40
2019-03-04T00:56:15.970Z,83.40
2019-03-04T01:00:22.377Z,83.30
2019-03-04T01:04:26.941Z,84.00
2019-03-04T01:08:31.502Z,84.00
2019-03-04T01:12:36.049Z,84.70
2019-03-04T01:16:40.628Z,84.40
2019-03-04T01:20:45.192Z,83.60
2019-03-04T01:24:49.757Z,84.40
2019-03-04T01:28:54.312Z,84.10
2019-03-04T01:32:58.860Z,84.40
2019-03-04T01:37:03.425Z,84.10
2019-03-04T01:41:07.947Z,84.20
2019-03-04T01:45:13.288Z,83.30
2019-03-04T01:49:17.871Z,84.40
2019-03-04T01:53:22.422Z,84.30
2019-03-04T01:57:27.007Z,83.80
2019-03-04T02:01:31.564Z,84.50
2019-03-04T02:05:36.123Z,84.10
2019-03-04T02:09:40.969Z,83.20
2019-03-04T02:13:45.566Z,84.00
2019-03-04T02:17:50.164Z,83.70
2019-03-04T02:21:54.697Z,84.00
2019-03-04T02:26:29.837Z,83.60
2019-03-04T02:30:34.426Z,83.70
2019-03-04T02:34:38.977Z,83.80
2019-03-04T02:38:43.544Z,84.60
2019-03-04T02:42:48.089Z,83.60
2019-03-04T02:46:52.633Z,83.60
2019-03-04T02:50:57.186Z,82.50
2019-03-04T02:55:01.744Z,83.50
2019-03-04T02:59:06.404Z,83.70
2019-03-04T03:03:10.920Z,83.40
2019-03-04T03:07:15.480Z,83.40
2019-03-04T03:11:20.045Z,83.10
2019-03-04T03:15:24.640Z,83.10
2019-03-04T03:19:29.192Z,82.80
2019-03-04T03:23:33.828Z,82.30
2019-03-04T03:27:38.374Z,83.00
2019-03-04T03:31:42.903Z,83.00
2019-03-04T03:35:47.443Z,83.40
2019-03-04T03:39:52.022Z,83.00
2019-03-04T03:43:56.568Z,83.10
2019-03-04T03:48:01.128Z,81.90
2019-03-04T03:52:05.706Z,82.10
2019-03-04T03:56:10.252Z,82.30
2019-03-04T04:00:16.002Z,81.90
2019-03-04T04:04:20.547Z,82.90
2019-03-04T04:08:25.110Z,82.50
2019-03-04T04:12:29.661Z,81.50
2019-03-04T04:16:34.252Z,82.00
2019-03-04T04:20:38.771Z,83.00
2019-03-04T04:24:43.343Z,82.70
2019-03-04T04:28:47.909Z,81.90
2019-03-04T04:32:52.511Z,80.90
2019-03-04T04:36:57.071Z,80.50
2019-03-04T04:41:01.604Z,80.20
2019-03-04T04:45:06.703Z,79.00
2019-03-04T04:49:11.292Z,79.40
2019-03-04T04:53:15.925Z,78.80
2019-03-04T04:57:20.492Z,78.70
2019-03-04T05:01:25.001Z,78.40
2019-03-04T05:05:29.591Z,78.70
2019-03-04T05:09:34.176Z,78.70
2019-03-04T05:13:38.741Z,78.00
2019-03-04T05:17:43.299Z,78.20
2019-03-04T05:21:48.187Z,77.70
2019-03-04T05:25:52.772Z,77.50
2019-03-04T05:29:57.272Z,77.50
2019-03-04T05:34:01.854Z,77.60
2019-03-04T05:38:06.394Z,76.60
2019-03-04T05:42:10.956Z,76.80
2019-03-04T05:46:15.554Z,75.80
2019-03-04T05:50:20.167Z,76.50
2019-03-04T05:54:24.720Z,76.40
2019-03-04T05:58:29.242Z,75.40
2019-03-04T06:02:33.788Z,75.40
2019-03-04T06:07:12.684Z,76.40
2019-03-04T06:11:17.267Z,75.40
2019-03-04T06:15:22.160Z,76.90
2019-03-04T06:19:26.690Z,75.20
2019-03-04T06:23:31.288Z,75.10
2019-03-04T06:27:35.866Z,75.00
2019-03-04T06:31:41.348Z,73.40
2019-03-04T06:35:45.922Z,74.60
2019-03-04T06:39:50.495Z,74.30
2019-03-04T06:47:32.952Z,73.30
2019-03-04T06:51:45.604Z,73.80
2019-03-04T06:56:05.572Z,74.60
2019-03-04T07:00:36.912Z,74.30
2019-03-04T07:05:08.062Z,74.30
2019-03-04T07:09:17.958Z,73.70
2019-03-04T07:13:22.545Z,73.50
2019-03-04T07:17:27.147Z,73.70
2019-03-04T07:21:31.692Z,74.00
2019-03-04T07:25:36.228Z,75.10
2019-03-04T07:29:40.810Z,74.30
2019-03-04T07:33:45.525Z,74.20
2019-03-04T07:38:00.554Z,73.80
2019-03-04T07:42:05.129Z,73.40
2019-03-04T07:46:09.636Z,75.60
2019-03-04T07:50:14.211Z,75.80
2019-03-04T07:54:18.776Z,74.10
2019-03-04T07:58:25.082Z,75.90
2019-03-04T08:02:28.487Z,76.30
2019-03-04T08:06:31.972Z,76.40
2019-03-04T08:11:25.792Z,76.90
2019-03-04T08:15:43.116Z,78.00
2019-03-04T08:19:47.750Z,76.70
2019-03-04T08:23:52.334Z,76.30
2019-03-04T08:27:56.908Z,76.70
2019-03-04T08:32:01.457Z,78.60
2019-03-04T08:36:04.956Z,78.00
2019-03-04T08:40:08.964Z,77.90
2019-03-04T08:44:12.484Z,77.40
2019-03-04T08:48:15.975Z,77.90
2019-03-04T08:52:20.588Z,78.40
2019-03-04T08:56:25.174Z,78.80
2019-03-04T09:00:30.816Z,78.60
2019-03-04T09:04:35.407Z,77.80
2019-03-04T09:12:02.149Z,77.00
2019-03-04T09:16:06.759Z,77.10
2019-03-04T09:20:11.698Z,76.70
2019-03-04T09:24:16.255Z,76.70
2019-03-04T09:28:20.844Z,76.80
2019-03-04T09:32:25.484Z,76.30
2019-03-04T09:36:30.059Z,77.20
2019-03-04T09:40:34.976Z,76.90
2019-03-04T09:44:39.592Z,78.00
2019-03-04T09:48:44.145Z,78.80
2019-03-04T09:52:48.887Z,80.10
2019-03-04T09:56:56.799Z,80.40
2019-03-04T10:01:09.397Z,79.60
2019-03-04T10:05:52.266Z,79.20
2019-03-04T10:10:15.919Z,78.30
2019-03-04T10:15:09.239Z,78.40
2019-03-04T10:19:39.703Z,77.90
2019-03-04T10:24:03.545Z,76.40
2019-03-04T10:28:29.316Z,75.70
2019-03-04T10:33:20.702Z,75.10
2019-03-04T10:38:22.559Z,75.40
2019-03-04T10:43:17.452Z,74.20
2019-03-04T10:47:22.168Z,73.10
2019-03-04T10:56:31.736Z,72.70
2019-03-04T11:00:36.360Z,72.40
2019-03-04T11:04:40.965Z,73.20
2019-03-04T11:08:45.533Z,71.80
2019-03-04T11:12:50.176Z,70.80
2019-03-04T11:16:54.784Z,72.50
2019-03-04T11:20:59.346Z,73.00
2019-03-04T11:25:04.246Z,73.10
2019-03-04T11:29:13.189Z,73.70
2019-03-04T11:33:17.529Z,74.60
2019-03-04T11:37:22.191Z,74.90
2019-03-04T11:41:28.081Z,74.60
2019-03-04T11:45:32.658Z,74.70
2019-03-04T11:49:37.288Z,75.00
2019-03-04T11:53:41.876Z,75.20
2019-03-04T11:57:46.464Z,75.10
2019-03-04T12:01:51.028Z,74.50
2019-03-04T12:05:55.597Z,74.10
2019-03-04T12:10:00.321Z,74.20
2019-03-04T12:14:04.896Z,74.40
2019-03-04T12:18:09.523Z,76.60
2019-03-04T12:22:14.065Z,77.60
2019-03-04T12:26:18.826Z,78.20
2019-03-04T12:30:23.538Z,78.10
2019-03-04T12:34:28.826Z,78.50
2019-03-04T12:38:33.379Z,79.00
2019-03-04T12:42:37.919Z,79.50
2019-03-04T12:46:42.708Z,79.20
2019-03-04T12:50:47.361Z,79.20
2019-03-04T12:54:52.015Z,79.80
2019-03-04T12:58:56.584Z,79.80
2019-03-04T13:03:01.210Z,80.00
2019-03-04T13:07:05.792Z,79.60
2019-03-04T13:11:10.398Z,79.30
2019-03-04T13:15:17.029Z,79.40
2019-03-04T13:19:21.599Z,79.80
2019-03-04T13:23:26.142Z,80.60
2019-03-04T13:27:30.712Z,80.30
2019-03-04T13:31:35.279Z,80.60
2019-03-04T13:35:39.864Z,79.40
2019-03-04T13:39:44.375Z,78.90
2019-03-04T13:43:48.982Z,78.70
2019-03-04T13:47:53.541Z,78.70
2019-03-04T13:51:58.116Z,78.00
2019-03-04T13:56:02.702Z,78.20
2019-03-04T14:00:09.434Z,77.30
2019-03-04T14:04:14.021Z,77.10
2019-03-04T14:08:18.597Z,77.10
2019-03-04T14:12:23.165Z,76.10
2019-03-04T14:16:28.625Z,75.30
2019-03-04T14:20:35.242Z,75.20
2019-03-04T14:24:39.869Z,75.40
2019-03-04T14:28:44.432Z,74.80
2019-03-04T14:32:48.996Z,74.60
2019-03-04T14:37:45.549Z,74.70
2019-03-04T14:41:50.121Z,75.20
2019-03-04T14:45:54.656Z,75.30
2019-03-04T14:50:09.220Z,75.00
2019-03-04T14:54:05.568Z,74.80
2019-03-04T14:58:10.154Z,75.00
2019-03-04T15:02:14.714Z,75.10
2019-03-04T15:06:19.231Z,75.50
2019-03-04T15:10:23.800Z,75.00
2019-03-04T15:14:28.414Z,75.20
2019-03-04T15:18:34.946Z,75.10
2019-03-04T15:22:39.341Z,74.60
2019-03-04T15:26:44.294Z,74.20
2019-03-04T15:30:51.252Z,74.20
2019-03-04T15:34:55.808Z,74.60
2019-03-04T15:39:00.379Z,74.30
2019-03-04T15:43:04.957Z,73.90
2019-03-04T15:47:09.486Z,73.30
2019-03-04T15:51:14.035Z,73.20
2019-03-04T15:55:18.700Z,73.60
2019-03-04T15:59:23.288Z,73.10
2019-03-04T16:03:27.800Z,73.60
2019-03-04T16:07:32.392Z,73.40
2019-03-04T16:11:36.951Z,73.40
2019-03-04T16:15:43.033Z,73.00
2019-03-04T16:19:47.599Z,72.40
2019-03-04T16:23:52.135Z,73.40
2019-03-04T16:28:05.526Z,73.30
2019-03-04T16:32:10.089Z,73.30
2019-03-04T16:36:14.652Z,73.10
2019-03-04T16:40:19.235Z,72.40
2019-03-04T16:44:23.872Z,73.00
2019-03-04T16:48:28.472Z,72.10
2019-03-04T16:52:33.066Z,73.40
2019-03-04T16:56:37.638Z,72.60
2019-03-04T17:00:42.869Z,71.90
2019-03-04T17:04:47.416Z,71.50
2019-03-04T17:08:51.972Z,72.10
2019-03-04T17:12:56.671Z,72.00
2019-03-04T17:17:01.255Z,71.90
2019-03-04T17:21:05.911Z,71.40
2019-03-04T17:25:11.620Z,71.60
2019-03-04T17:29:16.176Z,71.90
2019-03-04T17:33:20.732Z,71.90
2019-03-04T17:37:25.293Z,71.70
2019-03-04T17:41:29.849Z,71.70
2019-03-04T17:45:34.370Z,72.00
2019-03-04T17:49:38.920Z,72.40
2019-03-04T17:53:43.487Z,71.80
2019-03-04T17:57:48.051Z,72.20
2019-03-04T18:01:52.635Z,72.50
2019-03-04T18:05:57.160Z,72.00
2019-03-04T18:10:01.719Z,72.20
2019-03-04T18:14:07.602Z,72.20
2019-03-04T18:18:13.743Z,72.00
2019-03-04T18:22:18.444Z,72.50
2019-03-04T18:26:26.870Z,73.00
2019-03-04T18:31:11.385Z,72.50
2019-03-04T18:35:48.875Z,72.20
2019-03-04T18:40:29.324Z,72.40
2019-03-04T18:45:23.347Z,72.60
2019-03-04T18:49:27.938Z,72.80
2019-03-04T18:53:32.493Z,72.30
2019-03-04T18:57:37.035Z,72.10
2019-03-04T19:01:41.640Z,72.40
2019-03-04T19:05:46.198Z,72.30
2019-03-04T19:09:51.107Z,71.70
2019-03-04T19:13:55.651Z,71.50
2019-03-04T19:18:00.208Z,71.60
2019-03-04T19:22:04.761Z,71.70
2019-03-04T19:26:09.452Z,72.70
2019-03-04T19:30:14.435Z,71.70
2019-03-04T19:34:19.012Z,71.70
2019-03-04T19:38:23.525Z,72.00
2019-03-04T19:42:28.096Z,72.30
2019-03-04T19:46:32.689Z,72.70
2019-03-04T19:50:37.249Z,72.60
2019-03-04T19:54:41.805Z,72.70
2019-03-04T19:58:46.320Z,72.90
2019-03-04T20:02:51.048Z,73.20
2019-03-04T20:06:55.636Z,73.10
2019-03-04T20:11:00.193Z,73.50
2019-03-04T20:15:05.783Z,74.00
2019-03-04T20:19:10.363Z,73.80
2019-03-04T20:23:14.909Z,73.80
2019-03-04T20:27:19.510Z,73.70
2019-03-04T20:31:24.076Z,73.70
2019-03-04T20:35:28.626Z,73.70
2019-03-04T20:39:33.202Z,73.20
2019-03-04T20:43:37.739Z,73.60
2019-03-04T20:47:42.338Z,73.20
2019-03-04T20:51:46.895Z,73.10
2019-03-04T20:55:51.453Z,73.30
2019-03-04T20:59:56.029Z,73.00
2019-03-04T21:04:00.755Z,73.20
2019-03-04T21:08:05.407Z,73.20
2019-03-04T21:12:09.989Z,73.00
2019-03-04T21:16:14.575Z,72.90
2019-03-04T21:20:19.428Z,73.20
2019-03-04T21:24:24.048Z,73.20
2019-03-04T21:28:57.853Z,73.50
2019-03-04T21:33:30.438Z,73.70
2019-03-04T21:37:38.650Z,73.80
2019-03-04T21:41:54.763Z,74.60
2019-03-04T21:46:35.347Z,73.40
2019-03-04T21:51:01.564Z,73.60
2019-03-04T21:55:10.080Z,73.80
2019-03-04T21:59:14.624Z,73.10
2019-03-04T22:03:28.090Z,73.30
2019-03-04T22:07:32.762Z,73.30
2019-03-04T22:11:37.330Z,73.00
2019-03-04T22:15:41.893Z,73.10
2019-03-04T22:19:46.489Z,72.80
2019-03-04T22:23:51.111Z,73.70
2019-03-04T22:27:55.652Z,73.30
2019-03-04T22:32:00.223Z,72.90
2019-03-04T22:36:04.801Z,72.70
2019-03-04T22:40:12.059Z,72.90
2019-03-04T22:44:16.629Z,72.70
2019-03-04T22:48:21.189Z,72.80
2019-03-04T22:52:25.724Z,73.10
2019-03-04T22:56:30.289Z,72.80
2019-03-04T23:01:21.360Z,73.30
2019-03-04T23:05:26.145Z,73.20
2019-03-04T23:09:32.815Z,73.50
2019-03-04T23:14:01.222Z,73.30
2019-03-04T23:18:05.797Z,73.50
2019-03-04T23:22:10.320Z,73.00
2019-03-04T23:26:14.878Z,73.90
2019-03-04T23:30:19.469Z,74.30
2019-03-04T23:34:24.037Z,74.70
2019-03-04T23:38:28.602Z,74.80
2019-03-04T23:42:33.608Z,74.80
2019-03-04T23:46:38.172Z,74.90
2019-03-04T23:50:42.750Z,75.20
2019-03-04T23:54:47.303Z,75.50
2019-03-04T23:58:51.835Z,76.40
